sensor_id;sensor_type;location;lat;lon;timestamp;pressure;altitude;pressure_sealevel;temperature;humidity
55077;BME280;40971;44.702;11.030;2022-07-05T00:02:20;101152.41;;;20.45;93.81
55077;BME280;40971;44.702;11.030;2022-07-05T00:04:46;101202.44;;;20.59;95.69
55077;BME280;40971;44.702;11.030;2022-07-05T00:07:11;101174.94;;;20.60;94.21
55077;BME280;40971;44.702;11.030;2022-07-05T00:09:52;101167.25;;;20.57;93.78
55077;BME280;40971;44.702;11.030;2022-07-05T00:12:19;101164.88;;;20.54;93.79
55077;BME280;40971;44.702;11.030;2022-07-05T00:14:45;101204.69;;;20.63;94.59
55077;BME280;40971;44.702;11.030;2022-07-05T00:17:17;101152.22;;;20.36;94.87
55077;BME280;40971;44.702;11.030;2022-07-05T00:19:43;101116.03;;;20.16;94.64
55077;BME280;40971;44.702;11.030;2022-07-05T00:22:08;101193.38;;;20.61;94.78
55077;BME280;40971;44.702;11.030;2022-07-05T00:24:34;101202.44;;;20.59;95.06
55077;BME280;40971;44.702;11.030;2022-07-05T00:27:00;101208.63;;;20.69;95.18
55077;BME280;40971;44.702;11.030;2022-07-05T00:29:26;101121.06;;;20.29;94.60
55077;BME280;40971;44.702;11.030;2022-07-05T00:31:52;101183.44;;;20.54;95.33
55077;BME280;40971;44.702;11.030;2022-07-05T00:34:18;101152.31;;;20.25;96.57
55077;BME280;40971;44.702;11.030;2022-07-05T00:36:43;101201.94;;;20.34;96.41
55077;BME280;40971;44.702;11.030;2022-07-05T00:39:09;101211.28;;;20.38;97.06
55077;BME280;40971;44.702;11.030;2022-07-05T00:41:35;101226.38;;;20.38;97.66
55077;BME280;40971;44.702;11.030;2022-07-05T00:44:05;101210.16;;;20.01;98.12
55077;BME280;40971;44.702;11.030;2022-07-05T00:46:31;101135.28;;;19.57;99.06
55077;BME280;40971;44.702;11.030;2022-07-05T00:48:58;101219.19;;;20.19;99.43
55077;BME280;40971;44.702;11.030;2022-07-05T00:51:25;101164.13;;;19.81;99.76
55077;BME280;40971;44.702;11.030;2022-07-05T00:53:51;101208.06;;;20.04;99.84
55077;BME280;40971;44.702;11.030;2022-07-05T00:56:19;101224.00;;;20.14;99.90
55077;BME280;40971;44.702;11.030;2022-07-05T00:58:44;101231.97;;;20.14;100.00
55077;BME280;40971;44.702;11.030;2022-07-05T01:01:11;101231.00;;;20.15;100.00
55077;BME280;40971;44.702;11.030;2022-07-05T01:03:37;101212.81;;;20.01;100.00
55077;BME280;40971;44.702;11.030;2022-07-05T01:06:07;101238.13;;;20.14;100.00
55077;BME280;40971;44.702;11.030;2022-07-05T01:08:41;101235.88;;;20.10;100.00
55077;BME280;40971;44.702;11.030;2022-07-05T01:11:10;101206.59;;;19.91;100.00
55077;BME280;40971;44.702;11.030;2022-07-05T01:13:36;101237.16;;;20.16;100.00
55077;BME280;40971;44.702;11.030;2022-07-05T01:16:02;101242.78;;;20.22;100.00
55077;BME280;40971;44.702;11.030;2022-07-05T01:18:28;101248.50;;;20.27;100.00
55077;BME280;40971;44.702;11.030;2022-07-05T01:20:54;101253.38;;;20.22;99.93
55077;BME280;40971;44.702;11.030;2022-07-05T01:23:20;101254.34;;;20.21;99.71
55077;BME280;40971;44.702;11.030;2022-07-05T01:25:47;101221.34;;;19.83;99.64
55077;BME280;40971;44.702;11.030;2022-07-05T01:28:13;101218.38;;;19.77;99.84
55077;BME280;40971;44.702;11.030;2022-07-05T01:30:40;101217.75;;;19.85;99.91
55077;BME280;40971;44.702;11.030;2022-07-05T01:33:06;101234.09;;;19.90;99.71
55077;BME280;40971;44.702;11.030;2022-07-05T01:35:32;101255.53;;;20.07;100.00
55077;BME280;40971;44.702;11.030;2022-07-05T01:37:58;101202.19;;;19.80;99.39
55077;BME280;40971;44.702;11.030;2022-07-05T01:40:24;101211.72;;;19.82;99.43
55077;BME280;40971;44.702;11.030;2022-07-05T01:42:50;101250.75;;;20.01;99.66
55077;BME280;40971;44.702;11.030;2022-07-05T01:45:16;101139.50;;;19.28;100.00
55077;BME280;40971;44.702;11.030;2022-07-05T01:48:06;101254.88;;;19.94;100.00
55077;BME280;40971;44.702;11.030;2022-07-05T01:53:43;101204.66;;;19.93;100.00
55077;BME280;40971;44.702;11.030;2022-07-05T01:56:09;101217.75;;;20.15;99.32
55077;BME280;40971;44.702;11.030;2022-07-05T01:58:35;101196.56;;;19.94;98.77
55077;BME280;40971;44.702;11.030;2022-07-05T02:01:01;101260.38;;;20.23;99.09
55077;BME280;40971;44.702;11.030;2022-07-05T02:03:27;101230.41;;;20.02;99.32
55077;BME280;40971;44.702;11.030;2022-07-05T02:05:53;101163.25;;;19.50;99.55
55077;BME280;40971;44.702;11.030;2022-07-05T02:08:19;101175.50;;;19.51;99.17
55077;BME280;40971;44.702;11.030;2022-07-05T02:10:45;101139.09;;;19.11;100.00
55077;BME280;40971;44.702;11.030;2022-07-05T02:13:12;101239.06;;;19.62;100.00
55077;BME280;40971;44.702;11.030;2022-07-05T02:15:39;101273.19;;;19.76;100.00
55077;BME280;40971;44.702;11.030;2022-07-05T02:18:06;101166.81;;;19.07;100.00
55077;BME280;40971;44.702;11.030;2022-07-05T02:20:33;101261.13;;;19.51;100.00
55077;BME280;40971;44.702;11.030;2022-07-05T02:22:59;101155.53;;;18.94;100.00
55077;BME280;40971;44.702;11.030;2022-07-05T02:25:25;101163.56;;;19.04;100.00
55077;BME280;40971;44.702;11.030;2022-07-05T02:27:52;101210.53;;;19.34;100.00
55077;BME280;40971;44.702;11.030;2022-07-05T02:30:18;101216.00;;;19.42;100.00
55077;BME280;40971;44.702;11.030;2022-07-05T02:32:43;101164.47;;;19.14;100.00
55077;BME280;40971;44.702;11.030;2022-07-05T02:35:10;101200.75;;;19.34;100.00
55077;BME280;40971;44.702;11.030;2022-07-05T02:37:36;101278.34;;;19.78;100.00
55077;BME280;40971;44.702;11.030;2022-07-05T02:40:03;101251.94;;;19.67;100.00
55077;BME280;40971;44.702;11.030;2022-07-05T02:42:29;101267.88;;;19.76;100.00
55077;BME280;40971;44.702;11.030;2022-07-05T02:44:55;101252.50;;;19.70;100.00
55077;BME280;40971;44.702;11.030;2022-07-05T02:47:20;101281.09;;;19.88;100.00
55077;BME280;40971;44.702;11.030;2022-07-05T02:49:46;101224.16;;;19.50;100.00
55077;BME280;40971;44.702;11.030;2022-07-05T02:52:11;101259.75;;;19.68;100.00
55077;BME280;40971;44.702;11.030;2022-07-05T02:54:37;101263.69;;;19.74;100.00
55077;BME280;40971;44.702;11.030;2022-07-05T02:57:02;101220.91;;;19.46;100.00
55077;BME280;40971;44.702;11.030;2022-07-05T02:59:28;101273.53;;;19.83;100.00
55077;BME280;40971;44.702;11.030;2022-07-05T03:01:55;101297.78;;;19.99;100.00
55077;BME280;40971;44.702;11.030;2022-07-05T03:04:20;101185.22;;;19.30;100.00
55077;BME280;40971;44.702;11.030;2022-07-05T03:06:46;101174.72;;;19.18;100.00
55077;BME280;40971;44.702;11.030;2022-07-05T03:09:11;101259.41;;;19.62;100.00
55077;BME280;40971;44.702;11.030;2022-07-05T03:11:37;101234.28;;;19.45;100.00
55077;BME280;40971;44.702;11.030;2022-07-05T03:14:02;101289.75;;;19.69;100.00
55077;BME280;40971;44.702;11.030;2022-07-05T03:16:28;101256.19;;;19.47;100.00
55077;BME280;40971;44.702;11.030;2022-07-05T03:18:54;101297.13;;;19.65;100.00
55077;BME280;40971;44.702;11.030;2022-07-05T03:21:20;101317.84;;;19.81;100.00
55077;BME280;40971;44.702;11.030;2022-07-05T03:23:47;101268.97;;;19.42;100.00
55077;BME280;40971;44.702;11.030;2022-07-05T03:26:13;101240.13;;;19.28;100.00
55077;BME280;40971;44.702;11.030;2022-07-05T03:28:39;101262.25;;;19.38;100.00
55077;BME280;40971;44.702;11.030;2022-07-05T03:31:04;101331.75;;;19.73;100.00
55077;BME280;40971;44.702;11.030;2022-07-05T03:33:30;101321.53;;;19.69;100.00
55077;BME280;40971;44.702;11.030;2022-07-05T03:35:55;101293.13;;;19.60;100.00
55077;BME280;40971;44.702;11.030;2022-07-05T03:38:21;101290.63;;;19.58;100.00
55077;BME280;40971;44.702;11.030;2022-07-05T03:40:46;101272.56;;;19.52;100.00
55077;BME280;40971;44.702;11.030;2022-07-05T03:43:12;101172.19;;;18.85;100.00
55077;BME280;40971;44.702;11.030;2022-07-05T03:45:37;101280.88;;;19.59;100.00
55077;BME280;40971;44.702;11.030;2022-07-05T03:48:03;101312.56;;;19.81;100.00
55077;BME280;40971;44.702;11.030;2022-07-05T03:50:28;101214.38;;;19.30;100.00
55077;BME280;40971;44.702;11.030;2022-07-05T03:52:55;101301.91;;;19.92;100.00
55077;BME280;40971;44.702;11.030;2022-07-05T03:55:21;101295.75;;;19.92;100.00
55077;BME280;40971;44.702;11.030;2022-07-05T03:57:46;101214.63;;;19.47;100.00
55077;BME280;40971;44.702;11.030;2022-07-05T04:00:13;101189.66;;;19.40;100.00
55077;BME280;40971;44.702;11.030;2022-07-05T04:02:39;101186.94;;;19.51;100.00
55077;BME280;40971;44.702;11.030;2022-07-05T04:05:05;101296.66;;;20.23;100.00
55077;BME280;40971;44.702;11.030;2022-07-05T04:07:31;101222.06;;;19.86;100.00
55077;BME280;40971;44.702;11.030;2022-07-05T04:09:56;101278.41;;;20.50;100.00
55077;BME280;40971;44.702;11.030;2022-07-05T04:12:22;101260.81;;;20.49;100.00
55077;BME280;40971;44.702;11.030;2022-07-05T04:14:47;101264.88;;;20.63;100.00
55077;BME280;40971;44.702;11.030;2022-07-05T04:17:13;101246.16;;;20.55;100.00
55077;BME280;40971;44.702;11.030;2022-07-05T04:19:38;101234.56;;;20.56;99.87
55077;BME280;40971;44.702;11.030;2022-07-05T04:22:04;101250.63;;;20.54;100.00
55077;BME280;40971;44.702;11.030;2022-07-05T04:24:30;101230.66;;;20.50;99.51
55077;BME280;40971;44.702;11.030;2022-07-05T04:26:55;101259.53;;;20.84;98.54
55077;BME280;40971;44.702;11.030;2022-07-05T04:29:21;101194.34;;;20.60;97.60
55077;BME280;40971;44.702;11.030;2022-07-05T04:31:46;101271.72;;;21.15;96.71
55077;BME280;40971;44.702;11.030;2022-07-05T04:34:11;101252.56;;;21.12;96.55
55077;BME280;40971;44.702;11.030;2022-07-05T04:36:37;101259.88;;;21.19;95.94
55077;BME280;40971;44.702;11.030;2022-07-05T04:39:06;101285.34;;;21.31;96.34
55077;BME280;40971;44.702;11.030;2022-07-05T04:41:31;101280.59;;;21.35;95.98
55077;BME280;40971;44.702;11.030;2022-07-05T04:43:57;101213.84;;;20.90;96.35
55077;BME280;40971;44.702;11.030;2022-07-05T04:46:22;101214.94;;;20.97;96.79
55077;BME280;40971;44.702;11.030;2022-07-05T04:48:48;101247.56;;;21.18;96.56
55077;BME280;40971;44.702;11.030;2022-07-05T04:51:13;101202.94;;;21.12;95.43
55077;BME280;40971;44.702;11.030;2022-07-05T04:53:39;101221.56;;;21.31;95.22
55077;BME280;40971;44.702;11.030;2022-07-05T04:56:04;101204.25;;;21.37;92.95
55077;BME280;40971;44.702;11.030;2022-07-05T04:58:31;101204.66;;;21.42;92.38
55077;BME280;40971;44.702;11.030;2022-07-05T05:00:56;101264.50;;;21.85;91.04
55077;BME280;40971;44.702;11.030;2022-07-05T05:03:22;101225.59;;;21.65;91.14
55077;BME280;40971;44.702;11.030;2022-07-05T05:05:48;101217.78;;;21.63;90.97
55077;BME280;40971;44.702;11.030;2022-07-05T05:08:13;101163.69;;;21.25;91.51
55077;BME280;40971;44.702;11.030;2022-07-05T05:10:38;101217.06;;;21.71;90.58
55077;BME280;40971;44.702;11.030;2022-07-05T05:13:04;101231.59;;;21.86;90.01
55077;BME280;40971;44.702;11.030;2022-07-05T05:15:29;101244.81;;;22.25;89.34
55077;BME280;40971;44.702;11.030;2022-07-05T05:17:55;101264.34;;;22.43;88.27
55077;BME280;40971;44.702;11.030;2022-07-05T05:20:20;101267.97;;;22.51;88.51
55077;BME280;40971;44.702;11.030;2022-07-05T05:22:46;101249.03;;;22.55;86.45
55077;BME280;40971;44.702;11.030;2022-07-05T05:25:13;101230.94;;;22.58;86.87
55077;BME280;40971;44.702;11.030;2022-07-05T05:27:46;101254.78;;;22.77;86.21
55077;BME280;40971;44.702;11.030;2022-07-05T05:30:12;101248.19;;;22.81;84.72
55077;BME280;40971;44.702;11.030;2022-07-05T05:32:38;101249.69;;;22.94;83.50
55077;BME280;40971;44.702;11.030;2022-07-05T05:35:04;101255.34;;;23.08;83.19
55077;BME280;40971;44.702;11.030;2022-07-05T05:37:30;101237.53;;;23.09;82.53
55077;BME280;40971;44.702;11.030;2022-07-05T05:39:55;101254.34;;;23.27;82.32
55077;BME280;40971;44.702;11.030;2022-07-05T05:42:21;101252.75;;;23.34;82.06
55077;BME280;40971;44.702;11.030;2022-07-05T05:44:46;101236.31;;;23.21;81.61
55077;BME280;40971;44.702;11.030;2022-07-05T05:47:11;101226.09;;;23.17;81.42
55077;BME280;40971;44.702;11.030;2022-07-05T05:49:37;101263.50;;;23.42;82.53
55077;BME280;40971;44.702;11.030;2022-07-05T05:52:03;101248.81;;;23.38;81.67
55077;BME280;40971;44.702;11.030;2022-07-05T05:54:28;101266.50;;;23.57;79.41
55077;BME280;40971;44.702;11.030;2022-07-05T05:56:53;101220.00;;;23.42;78.72
55077;BME280;40971;44.702;11.030;2022-07-05T05:59:19;101230.84;;;23.58;78.46
55077;BME280;40971;44.702;11.030;2022-07-05T06:01:44;101263.09;;;23.91;77.68
55077;BME280;40971;44.702;11.030;2022-07-05T06:04:10;101267.00;;;24.05;77.20
55077;BME280;40971;44.702;11.030;2022-07-05T06:06:35;101268.72;;;24.14;76.70
55077;BME280;40971;44.702;11.030;2022-07-05T06:09:00;101276.44;;;24.43;74.98
55077;BME280;40971;44.702;11.030;2022-07-05T06:11:26;101277.69;;;24.65;75.18
55077;BME280;40971;44.702;11.030;2022-07-05T06:13:51;101257.88;;;24.75;73.72
55077;BME280;40971;44.702;11.030;2022-07-05T06:16:17;101269.97;;;24.96;71.46
55077;BME280;40971;44.702;11.030;2022-07-05T06:18:42;101264.69;;;25.12;71.03
55077;BME280;40971;44.702;11.030;2022-07-05T06:21:08;101277.59;;;25.41;70.02
55077;BME280;40971;44.702;11.030;2022-07-05T06:23:33;101270.94;;;25.69;67.64
55077;BME280;40971;44.702;11.030;2022-07-05T06:25:59;101155.59;;;25.15;66.77
55077;BME280;40971;44.702;11.030;2022-07-05T06:28:24;101282.97;;;25.90;66.23
55077;BME280;40971;44.702;11.030;2022-07-05T06:30:50;101284.47;;;25.84;65.57
55077;BME280;40971;44.702;11.030;2022-07-05T06:33:15;101186.03;;;25.23;66.29
55077;BME280;40971;44.702;11.030;2022-07-05T06:35:41;101234.47;;;25.52;65.83
55077;BME280;40971;44.702;11.030;2022-07-05T06:38:08;101266.56;;;26.09;65.66
55077;BME280;40971;44.702;11.030;2022-07-05T06:40:36;101208.69;;;26.00;65.15
55077;BME280;40971;44.702;11.030;2022-07-05T06:43:04;101280.13;;;26.71;63.06
55077;BME280;40971;44.702;11.030;2022-07-05T06:45:30;101247.41;;;26.36;64.12
55077;BME280;40971;44.702;11.030;2022-07-05T06:48:00;101269.31;;;26.48;62.69
55077;BME280;40971;44.702;11.030;2022-07-05T06:50:28;101268.97;;;26.51;64.40
55077;BME280;40971;44.702;11.030;2022-07-05T06:52:54;101286.38;;;26.55;64.61
55077;BME280;40971;44.702;11.030;2022-07-05T06:55:20;101187.47;;;25.90;63.44
55077;BME280;40971;44.702;11.030;2022-07-05T06:57:46;101277.03;;;26.43;63.28
55077;BME280;40971;44.702;11.030;2022-07-05T07:00:13;101227.75;;;25.97;65.26
55077;BME280;40971;44.702;11.030;2022-07-05T07:02:39;101284.22;;;26.34;65.07
55077;BME280;40971;44.702;11.030;2022-07-05T07:05:05;101296.31;;;26.78;64.44
55077;BME280;40971;44.702;11.030;2022-07-05T07:07:31;101252.81;;;27.07;60.64
55077;BME280;40971;44.702;11.030;2022-07-05T07:10:15;101279.97;;;27.49;60.13
55077;BME280;40971;44.702;11.030;2022-07-05T07:12:41;101240.38;;;27.51;58.44
55077;BME280;40971;44.702;11.030;2022-07-05T07:15:07;101289.56;;;28.04;57.57
55077;BME280;40971;44.702;11.030;2022-07-05T07:17:32;101290.81;;;28.16;57.03
55077;BME280;40971;44.702;11.030;2022-07-05T07:19:58;101291.88;;;28.30;54.73
55077;BME280;40971;44.702;11.030;2022-07-05T07:22:23;101292.59;;;28.54;56.00
55077;BME280;40971;44.702;11.030;2022-07-05T07:24:49;101300.19;;;28.50;55.19
55077;BME280;40971;44.702;11.030;2022-07-05T07:27:14;101281.81;;;28.09;56.96
55077;BME280;40971;44.702;11.030;2022-07-05T07:29:40;101306.88;;;28.54;56.04
55077;BME280;40971;44.702;11.030;2022-07-05T07:32:07;101311.50;;;28.60;56.19
55077;BME280;40971;44.702;11.030;2022-07-05T07:34:33;101320.03;;;28.49;55.25
55077;BME280;40971;44.702;11.030;2022-07-05T07:37:01;101319.38;;;28.47;56.16
55077;BME280;40971;44.702;11.030;2022-07-05T07:39:27;101310.56;;;28.53;55.98
55077;BME280;40971;44.702;11.030;2022-07-05T07:41:53;101312.88;;;28.71;56.27
55077;BME280;40971;44.702;11.030;2022-07-05T07:44:19;101301.13;;;28.87;56.10
55077;BME280;40971;44.702;11.030;2022-07-05T07:46:45;101308.59;;;29.06;54.51
55077;BME280;40971;44.702;11.030;2022-07-05T07:49:11;101298.69;;;29.07;54.84
55077;BME280;40971;44.702;11.030;2022-07-05T07:51:37;101303.91;;;28.93;54.45
55077;BME280;40971;44.702;11.030;2022-07-05T07:54:03;101301.84;;;29.31;53.07
55077;BME280;40971;44.702;11.030;2022-07-05T07:56:29;101213.56;;;28.84;52.81
55077;BME280;40971;44.702;11.030;2022-07-05T07:58:54;101309.75;;;29.18;52.72
55077;BME280;40971;44.702;11.030;2022-07-05T08:01:20;101296.00;;;29.07;51.78
55077;BME280;40971;44.702;11.030;2022-07-05T08:03:45;101296.06;;;29.13;50.87
55077;BME280;40971;44.702;11.030;2022-07-05T08:06:12;101266.56;;;29.05;51.48
55077;BME280;40971;44.702;11.030;2022-07-05T08:08:39;101272.75;;;29.63;50.69
55077;BME280;40971;44.702;11.030;2022-07-05T08:11:06;101291.09;;;29.74;47.04
55077;BME280;40971;44.702;11.030;2022-07-05T08:13:32;101305.22;;;30.04;47.39
55077;BME280;40971;44.702;11.030;2022-07-05T08:15:58;101288.28;;;29.89;45.64
55077;BME280;40971;44.702;11.030;2022-07-05T08:18:24;101284.81;;;30.23;46.75
55077;BME280;40971;44.702;11.030;2022-07-05T08:21:09;101289.34;;;30.16;48.67
55077;BME280;40971;44.702;11.030;2022-07-05T08:23:53;101272.91;;;29.83;48.29
55077;BME280;40971;44.702;11.030;2022-07-05T08:26:19;101289.81;;;29.98;49.09
55077;BME280;40971;44.702;11.030;2022-07-05T08:28:44;101270.44;;;29.81;47.65
55077;BME280;40971;44.702;11.030;2022-07-05T08:31:10;101270.47;;;29.88;48.53
55077;BME280;40971;44.702;11.030;2022-07-05T08:33:35;101298.84;;;30.46;48.36
55077;BME280;40971;44.702;11.030;2022-07-05T08:36:01;101309.88;;;30.93;47.77
55077;BME280;40971;44.702;11.030;2022-07-05T08:38:26;101309.66;;;30.88;45.34
55077;BME280;40971;44.702;11.030;2022-07-05T08:40:55;101258.53;;;29.97;47.62
55077;BME280;40971;44.702;11.030;2022-07-05T08:43:22;101303.53;;;30.31;48.25
55077;BME280;40971;44.702;11.030;2022-07-05T08:45:49;101265.81;;;30.31;47.82
55077;BME280;40971;44.702;11.030;2022-07-05T08:48:16;101290.38;;;30.56;47.18
55077;BME280;40971;44.702;11.030;2022-07-05T08:50:43;101294.50;;;30.87;47.15
55077;BME280;40971;44.702;11.030;2022-07-05T08:53:09;101278.22;;;31.21;45.69
55077;BME280;40971;44.702;11.030;2022-07-05T08:55:35;101307.09;;;31.40;45.79
55077;BME280;40971;44.702;11.030;2022-07-05T08:58:01;101300.50;;;31.43;45.15
55077;BME280;40971;44.702;11.030;2022-07-05T09:00:27;101290.09;;;31.27;44.98
55077;BME280;40971;44.702;11.030;2022-07-05T09:02:53;101291.13;;;31.39;45.52
55077;BME280;40971;44.702;11.030;2022-07-05T09:05:20;101286.38;;;31.61;45.63
55077;BME280;40971;44.702;11.030;2022-07-05T09:07:57;101255.41;;;31.70;44.00
55077;BME280;40971;44.702;11.030;2022-07-05T09:10:28;101290.97;;;31.60;44.66
55077;BME280;40971;44.702;11.030;2022-07-05T09:12:55;101263.84;;;31.01;45.78
55077;BME280;40971;44.702;11.030;2022-07-05T09:15:21;101277.41;;;31.34;45.72
55077;BME280;40971;44.702;11.030;2022-07-05T09:17:47;101296.53;;;31.72;45.07
55077;BME280;40971;44.702;11.030;2022-07-05T09:20:15;101284.91;;;31.71;44.59
55077;BME280;40971;44.702;11.030;2022-07-05T09:22:59;101272.66;;;31.69;45.34
55077;BME280;40971;44.702;11.030;2022-07-05T09:25:29;101288.50;;;31.79;46.02
55077;BME280;40971;44.702;11.030;2022-07-05T09:27:56;101283.66;;;32.20;45.96
55077;BME280;40971;44.702;11.030;2022-07-05T09:30:35;101272.66;;;32.80;42.34
55077;BME280;40971;44.702;11.030;2022-07-05T09:33:13;101239.69;;;32.51;41.21
55077;BME280;40971;44.702;11.030;2022-07-05T09:35:41;101261.56;;;32.50;42.24
55077;BME280;40971;44.702;11.030;2022-07-05T09:38:19;101241.97;;;32.61;41.40
55077;BME280;40971;44.702;11.030;2022-07-05T09:43:25;101268.22;;;32.99;39.92
55077;BME280;40971;44.702;11.030;2022-07-05T09:46:02;101275.28;;;33.00;40.44
55077;BME280;40971;44.702;11.030;2022-07-05T09:48:29;101271.97;;;32.91;41.20
55077;BME280;40971;44.702;11.030;2022-07-05T09:51:09;101252.28;;;32.77;39.15
55077;BME280;40971;44.702;11.030;2022-07-05T09:53:50;101253.72;;;32.86;40.19
55077;BME280;40971;44.702;11.030;2022-07-05T09:56:16;101265.13;;;32.88;39.51
55077;BME280;40971;44.702;11.030;2022-07-05T09:58:43;101272.44;;;32.75;39.81
55077;BME280;40971;44.702;11.030;2022-07-05T10:01:28;101275.16;;;32.75;39.68
55077;BME280;40971;44.702;11.030;2022-07-05T10:03:59;101272.53;;;33.06;40.02
55077;BME280;40971;44.702;11.030;2022-07-05T10:06:28;101264.72;;;33.55;39.54
55077;BME280;40971;44.702;11.030;2022-07-05T10:08:54;101267.09;;;33.44;39.39
55077;BME280;40971;44.702;11.030;2022-07-05T10:11:21;101273.75;;;33.42;39.92
55077;BME280;40971;44.702;11.030;2022-07-05T10:13:48;101268.31;;;33.98;38.40
55077;BME280;40971;44.702;11.030;2022-07-05T10:16:16;101254.19;;;34.15;37.83
55077;BME280;40971;44.702;11.030;2022-07-05T10:18:45;101252.94;;;33.92;37.72
55077;BME280;40971;44.702;11.030;2022-07-05T10:21:16;101250.34;;;33.79;37.96
55077;BME280;40971;44.702;11.030;2022-07-05T10:23:44;101252.13;;;33.67;39.21
55077;BME280;40971;44.702;11.030;2022-07-05T10:26:15;101247.16;;;33.64;40.23
55077;BME280;40971;44.702;11.030;2022-07-05T10:28:45;101235.97;;;33.78;38.67
55077;BME280;40971;44.702;11.030;2022-07-05T10:31:12;101215.03;;;33.67;38.85
55077;BME280;40971;44.702;11.030;2022-07-05T10:33:38;101257.31;;;33.68;39.12
55077;BME280;40971;44.702;11.030;2022-07-05T10:36:04;101234.88;;;33.86;38.79
55077;BME280;40971;44.702;11.030;2022-07-05T10:38:35;101240.78;;;33.76;39.33
55077;BME280;40971;44.702;11.030;2022-07-05T10:41:03;101182.63;;;33.79;37.99
55077;BME280;40971;44.702;11.030;2022-07-05T10:43:30;101253.47;;;34.44;37.68
55077;BME280;40971;44.702;11.030;2022-07-05T10:45:56;101248.66;;;34.21;37.21
55077;BME280;40971;44.702;11.030;2022-07-05T10:48:23;101245.88;;;34.09;36.06
55077;BME280;40971;44.702;11.030;2022-07-05T10:58:40;101238.25;;;34.73;35.48
55077;BME280;40971;44.702;11.030;2022-07-05T11:03:44;101206.91;;;34.59;34.38
55077;BME280;40971;44.702;11.030;2022-07-05T11:06:21;101232.44;;;34.88;35.28
55077;BME280;40971;44.702;11.030;2022-07-05T11:14:04;101223.00;;;34.42;32.50
55077;BME280;40971;44.702;11.030;2022-07-05T11:16:33;101232.34;;;34.46;36.58
55077;BME280;40971;44.702;11.030;2022-07-05T11:21:30;101215.59;;;34.67;35.55
55077;BME280;40971;44.702;11.030;2022-07-05T11:26:44;101221.25;;;34.96;32.85
55077;BME280;40971;44.702;11.030;2022-07-05T11:29:43;101209.34;;;34.97;31.59
55077;BME280;40971;44.702;11.030;2022-07-05T11:32:11;101190.47;;;35.02;33.08
55077;BME280;40971;44.702;11.030;2022-07-05T11:34:39;101181.88;;;35.17;32.44
55077;BME280;40971;44.702;11.030;2022-07-05T11:39:44;101157.63;;;35.45;32.26
55077;BME280;40971;44.702;11.030;2022-07-05T11:42:10;101198.47;;;35.85;32.83
55077;BME280;40971;44.702;11.030;2022-07-05T11:44:36;101200.09;;;35.75;33.68
55077;BME280;40971;44.702;11.030;2022-07-05T11:47:06;101196.19;;;36.06;33.82
55077;BME280;40971;44.702;11.030;2022-07-05T11:49:32;101197.06;;;35.95;33.35
55077;BME280;40971;44.702;11.030;2022-07-05T11:52:01;101193.63;;;35.99;31.39
55077;BME280;40971;44.702;11.030;2022-07-05T11:54:32;101165.94;;;36.02;34.45
55077;BME280;40971;44.702;11.030;2022-07-05T11:56:59;101186.34;;;36.57;34.02
55077;BME280;40971;44.702;11.030;2022-07-05T11:59:26;101197.31;;;36.45;30.62
55077;BME280;40971;44.702;11.030;2022-07-05T12:01:52;101177.63;;;36.14;31.27
55077;BME280;40971;44.702;11.030;2022-07-05T12:04:28;101167.34;;;36.05;29.81
55077;BME280;40971;44.702;11.030;2022-07-05T12:06:54;101185.91;;;36.08;29.69
55077;BME280;40971;44.702;11.030;2022-07-05T12:09:28;101169.34;;;36.09;29.60
55077;BME280;40971;44.702;11.030;2022-07-05T12:12:17;101176.28;;;36.57;28.59
55077;BME280;40971;44.702;11.030;2022-07-05T12:15:02;101168.56;;;36.66;28.29
55077;BME280;40971;44.702;11.030;2022-07-05T12:17:28;101178.03;;;36.47;28.81
55077;BME280;40971;44.702;11.030;2022-07-05T12:19:53;101183.34;;;36.41;27.50
55077;BME280;40971;44.702;11.030;2022-07-05T12:22:33;101189.16;;;36.45;27.92
55077;BME280;40971;44.702;11.030;2022-07-05T12:25:00;101175.00;;;36.20;27.97
55077;BME280;40971;44.702;11.030;2022-07-05T12:27:31;101184.06;;;36.37;28.09
55077;BME280;40971;44.702;11.030;2022-07-05T12:29:57;101143.06;;;36.55;28.94
55077;BME280;40971;44.702;11.030;2022-07-05T12:32:22;101157.69;;;36.66;27.98
55077;BME280;40971;44.702;11.030;2022-07-05T12:34:47;101153.47;;;36.75;29.22
55077;BME280;40971;44.702;11.030;2022-07-05T12:37:21;101161.44;;;36.93;28.84
55077;BME280;40971;44.702;11.030;2022-07-05T12:39:48;101155.75;;;37.12;27.58
55077;BME280;40971;44.702;11.030;2022-07-05T12:42:32;101117.81;;;36.88;26.98
55077;BME280;40971;44.702;11.030;2022-07-05T12:47:51;101130.72;;;36.64;27.71
55077;BME280;40971;44.702;11.030;2022-07-05T12:50:19;101147.53;;;36.78;28.16
55077;BME280;40971;44.702;11.030;2022-07-05T12:53:05;101152.13;;;37.23;27.41
55077;BME280;40971;44.702;11.030;2022-07-05T12:56:11;101131.38;;;36.71;25.93
55077;BME280;40971;44.702;11.030;2022-07-05T12:58:59;101143.78;;;36.79;26.31
55077;BME280;40971;44.702;11.030;2022-07-05T13:01:27;101115.50;;;36.97;27.69
55077;BME280;40971;44.702;11.030;2022-07-05T13:04:07;101138.25;;;36.91;24.34
55077;BME280;40971;44.702;11.030;2022-07-05T13:07:00;101144.78;;;37.40;24.50
55077;BME280;40971;44.702;11.030;2022-07-05T13:12:11;101143.22;;;37.27;25.58
55077;BME280;40971;44.702;11.030;2022-07-05T13:14:58;101135.22;;;37.21;25.38
55077;BME280;40971;44.702;11.030;2022-07-05T13:17:24;101081.84;;;36.86;25.95